sensor_id;sensor_type;location;lat;lon;timestamp;pressure;altitude;pressure_sealevel;temperature;humidity
13800;BME280;6971;50.028;9.258;2024-03-02T00:04:06;98256.72;;;1.90;100.00
13800;BME280;6971;50.028;9.258;2024-03-02T00:09:09;98260.22;;;1.89;100.00
13800;BME280;6971;50.028;9.258;2024-03-02T00:14:12;98250.63;;;1.91;100.00
13800;BME280;6971;50.028;9.258;2024-03-02T00:19:12;98249.63;;;1.95;100.00
13800;BME280;6971;50.028;9.258;2024-03-02T00:24:33;98256.38;;;2.00;100.00
13800;BME280;6971;50.028;9.258;2024-03-02T00:29:34;98261.13;;;1.88;100.00
13800;BME280;6971;50.028;9.258;2024-03-02T00:34:35;98262.72;;;1.92;100.00
13800;BME280;6971;50.028;9.258;2024-03-02T00:39:36;98255.94;;;1.88;100.00
13800;BME280;6971;50.028;9.258;2024-03-02T00:44:36;98255.94;;;1.88;100.00
13800;BME280;6971;50.028;9.258;2024-03-02T00:49:37;98256.91;;;1.86;100.00
13800;BME280;6971;50.028;9.258;2024-03-02T00:54:38;98256.84;;;1.87;100.00
13800;BME280;6971;50.028;9.258;2024-03-02T00:59:38;98257.84;;;1.83;100.00
13800;BME280;6971;50.028;9.258;2024-03-02T01:04:38;98257.97;;;1.80;100.00
13800;BME280;6971;50.028;9.258;2024-03-02T01:09:39;98269.16;;;1.82;100.00
13800;BME280;6971;50.028;9.258;2024-03-02T01:14:39;98275.13;;;1.60;100.00
13800;BME280;6971;50.028;9.258;2024-03-02T01:19:41;98265.03;;;1.51;100.00
13800;BME280;6971;50.028;9.258;2024-03-02T01:24:42;98254.84;;;1.46;100.00
13800;BME280;6971;50.028;9.258;2024-03-02T01:29:43;98252.34;;;1.43;100.00
13800;BME280;6971;50.028;9.258;2024-03-02T01:34:44;98248.16;;;1.39;100.00
13800;BME280;6971;50.028;9.258;2024-03-02T01:39:44;98241.66;;;1.27;100.00
13800;BME280;6971;50.028;9.258;2024-03-02T01:44:44;98239.91;;;1.27;100.00
13800;BME280;6971;50.028;9.258;2024-03-02T01:49:45;98242.94;;;1.15;100.00
13800;BME280;6971;50.028;9.258;2024-03-02T01:54:45;98238.69;;;1.12;100.00
13800;BME280;6971;50.028;9.258;2024-03-02T01:59:46;98229.31;;;1.08;100.00
13800;BME280;6971;50.028;9.258;2024-03-02T02:04:48;98238.06;;;1.06;100.00
13800;BME280;6971;50.028;9.258;2024-03-02T02:09:48;98231.44;;;0.97;100.00
13800;BME280;6971;50.028;9.258;2024-03-02T02:14:49;98223.38;;;0.79;100.00
13800;BME280;6971;50.028;9.258;2024-03-02T02:19:50;98229.16;;;0.87;100.00
13800;BME280;6971;50.028;9.258;2024-03-02T02:24:50;98222.50;;;0.80;100.00
13800;BME280;6971;50.028;9.258;2024-03-02T02:29:51;98213.81;;;0.81;100.00
13800;BME280;6971;50.028;9.258;2024-03-02T02:34:54;98212.59;;;0.64;100.00
13800;BME280;6971;50.028;9.258;2024-03-02T02:39:54;98211.00;;;0.60;100.00
13800;BME280;6971;50.028;9.258;2024-03-02T02:44:55;98205.88;;;0.59;100.00
13800;BME280;6971;50.028;9.258;2024-03-02T02:49:55;98194.25;;;0.44;100.00
13800;BME280;6971;50.028;9.258;2024-03-02T02:54:56;98184.00;;;0.41;100.00
13800;BME280;6971;50.028;9.258;2024-03-02T02:59:56;98186.63;;;0.39;100.00
13800;BME280;6971;50.028;9.258;2024-03-02T03:04:57;98183.22;;;0.37;100.00
13800;BME280;6971;50.028;9.258;2024-03-02T03:09:57;98186.06;;;0.29;100.00
13800;BME280;6971;50.028;9.258;2024-03-02T03:14:58;98190.28;;;0.33;100.00
13800;BME280;6971;50.028;9.258;2024-03-02T03:19:58;98189.53;;;0.30;100.00
13800;BME280;6971;50.028;9.258;2024-03-02T03:24:59;98184.47;;;0.25;100.00
13800;BME280;6971;50.028;9.258;2024-03-02T03:29:59;98184.56;;;0.22;100.00
13800;BME280;6971;50.028;9.258;2024-03-02T03:35:00;98183.91;;;0.15;100.00
13800;BME280;6971;50.028;9.258;2024-03-02T03:40:01;98185.81;;;0.10;100.00
13800;BME280;6971;50.028;9.258;2024-03-02T03:45:02;98186.41;;;0.18;100.00
13800;BME280;6971;50.028;9.258;2024-03-02T03:50:03;98189.97;;;0.16;100.00
13800;BME280;6971;50.028;9.258;2024-03-02T03:55:08;98193.34;;;0.18;100.00
13800;BME280;6971;50.028;9.258;2024-03-02T04:00:09;98181.41;;;0.14;100.00
13800;BME280;6971;50.028;9.258;2024-03-02T04:05:10;98189.22;;;0.12;100.00
13800;BME280;6971;50.028;9.258;2024-03-02T04:10:10;98173.00;;;0.05;100.00
13800;BME280;6971;50.028;9.258;2024-03-02T04:15:12;98187.41;;;0.14;100.00
13800;BME280;6971;50.028;9.258;2024-03-02T04:20:12;98185.06;;;0.06;100.00
13800;BME280;6971;50.028;9.258;2024-03-02T04:25:13;98181.63;;;0.06;100.00
13800;BME280;6971;50.028;9.258;2024-03-02T04:30:13;98196.00;;;0.16;100.00
13800;BME280;6971;50.028;9.258;2024-03-02T04:35:14;98192.47;;;0.19;100.00
13800;BME280;6971;50.028;9.258;2024-03-02T04:40:14;98191.66;;;0.17;100.00
13800;BME280;6971;50.028;9.258;2024-03-02T04:45:15;98186.78;;;0.06;100.00
13800;BME280;6971;50.028;9.258;2024-03-02T04:50:15;98186.13;;;-0.01;100.00
13800;BME280;6971;50.028;9.258;2024-03-02T04:55:16;98185.97;;;0.05;100.00
13800;BME280;6971;50.028;9.258;2024-03-02T05:00:16;98179.13;;;0.03;100.00
13800;BME280;6971;50.028;9.258;2024-03-02T05:05:17;98192.19;;;-0.01;100.00
13800;BME280;6971;50.028;9.258;2024-03-02T05:10:17;98182.69;;;0.00;100.00
13800;BME280;6971;50.028;9.258;2024-03-02T05:15:18;98198.22;;;0.00;100.00
13800;BME280;6971;50.028;9.258;2024-03-02T05:20:18;98204.16;;;0.04;100.00
13800;BME280;6971;50.028;9.258;2024-03-02T05:25:19;98201.34;;;0.10;100.00
13800;BME280;6971;50.028;9.258;2024-03-02T05:30:19;98205.75;;;0.08;100.00
13800;BME280;6971;50.028;9.258;2024-03-02T05:35:19;98212.66;;;0.07;100.00
13800;BME280;6971;50.028;9.258;2024-03-02T05:40:20;98214.13;;;0.16;100.00
13800;BME280;6971;50.028;9.258;2024-03-02T05:45:21;98209.00;;;0.15;100.00
13800;BME280;6971;50.028;9.258;2024-03-02T05:50:21;98211.59;;;0.15;100.00
13800;BME280;6971;50.028;9.258;2024-03-02T05:55:21;98208.84;;;0.19;100.00
13800;BME280;6971;50.028;9.258;2024-03-02T06:00:22;98227.91;;;0.17;100.00
13800;BME280;6971;50.028;9.258;2024-03-02T06:05:23;98225.81;;;0.30;100.00
13800;BME280;6971;50.028;9.258;2024-03-02T06:10:23;98231.81;;;0.30;100.00
13800;BME280;6971;50.028;9.258;2024-03-02T06:15:23;98240.22;;;0.38;100.00
13800;BME280;6971;50.028;9.258;2024-03-02T06:20:24;98243.66;;;0.39;100.00
13800;BME280;6971;50.028;9.258;2024-03-02T06:25:26;98257.13;;;0.50;100.00
13800;BME280;6971;50.028;9.258;2024-03-02T06:30:27;98271.66;;;0.56;100.00
13800;BME280;6971;50.028;9.258;2024-03-02T06:35:27;98271.25;;;0.69;100.00
13800;BME280;6971;50.028;9.258;2024-03-02T06:40:28;98283.22;;;0.73;100.00
13800;BME280;6971;50.028;9.258;2024-03-02T06:45:28;98290.81;;;0.79;100.00
13800;BME280;6971;50.028;9.258;2024-03-02T06:50:30;98284.44;;;0.89;100.00
13800;BME280;6971;50.028;9.258;2024-03-02T06:55:30;98279.72;;;1.01;100.00
13800;BME280;6971;50.028;9.258;2024-03-02T07:00:31;98286.38;;;1.10;100.00
13800;BME280;6971;50.028;9.258;2024-03-02T07:05:31;98278.19;;;1.22;100.00
13800;BME280;6971;50.028;9.258;2024-03-02T07:10:31;98276.78;;;1.37;100.00
13800;BME280;6971;50.028;9.258;2024-03-02T07:15:32;98271.06;;;1.53;100.00
13800;BME280;6971;50.028;9.258;2024-03-02T07:20:51;98276.53;;;1.69;100.00
13800;BME280;6971;50.028;9.258;2024-03-02T07:25:51;98270.63;;;1.89;100.00
13800;BME280;6971;50.028;9.258;2024-03-02T07:31:02;98283.72;;;2.10;100.00
13800;BME280;6971;50.028;9.258;2024-03-02T07:36:03;98289.69;;;2.36;100.00
13800;BME280;6971;50.028;9.258;2024-03-02T07:41:03;98290.53;;;2.59;100.00
13800;BME280;6971;50.028;9.258;2024-03-02T07:46:04;98293.19;;;2.80;100.00
13800;BME280;6971;50.028;9.258;2024-03-02T07:51:05;98291.84;;;3.12;100.00
13800;BME280;6971;50.028;9.258;2024-03-02T07:56:06;98286.78;;;3.30;100.00
13800;BME280;6971;50.028;9.258;2024-03-02T08:01:07;98284.88;;;3.55;100.00
13800;BME280;6971;50.028;9.258;2024-03-02T08:06:07;98287.63;;;3.91;100.00
13800;BME280;6971;50.028;9.258;2024-03-02T08:11:07;98286.38;;;4.20;100.00
13800;BME280;6971;50.028;9.258;2024-03-02T08:16:08;98295.19;;;4.73;100.00
13800;BME280;6971;50.028;9.258;2024-03-02T08:21:09;98282.88;;;5.81;100.00
13800;BME280;6971;50.028;9.258;2024-03-02T08:26:10;98275.63;;;5.86;100.00
13800;BME280;6971;50.028;9.258;2024-03-02T08:31:11;98279.75;;;6.24;100.00
13800;BME280;6971;50.028;9.258;2024-03-02T08:36:12;98289.97;;;7.53;100.00
13800;BME280;6971;50.028;9.258;2024-03-02T08:41:12;98286.97;;;8.60;100.00
13800;BME280;6971;50.028;9.258;2024-03-02T08:46:14;98301.00;;;9.55;100.00
13800;BME280;6971;50.028;9.258;2024-03-02T08:51:14;98311.09;;;9.87;100.00
13800;BME280;6971;50.028;9.258;2024-03-02T08:56:14;98313.88;;;10.36;100.00
13800;BME280;6971;50.028;9.258;2024-03-02T09:01:17;98316.66;;;10.21;100.00
13800;BME280;6971;50.028;9.258;2024-03-02T09:06:17;98318.13;;;9.60;100.00
13800;BME280;6971;50.028;9.258;2024-03-02T09:11:19;98318.47;;;9.56;100.00
13800;BME280;6971;50.028;9.258;2024-03-02T09:16:20;98321.81;;;9.45;100.00
13800;BME280;6971;50.028;9.258;2024-03-02T09:21:20;98315.13;;;9.92;100.00
13800;BME280;6971;50.028;9.258;2024-03-02T09:26:20;98316.44;;;11.35;100.00
13800;BME280;6971;50.028;9.258;2024-03-02T09:31:21;98309.34;;;11.35;100.00
13800;BME280;6971;50.028;9.258;2024-03-02T09:36:22;98308.31;;;12.31;100.00
13800;BME280;6971;50.028;9.258;2024-03-02T09:41:24;98325.72;;;13.43;100.00
13800;BME280;6971;50.028;9.258;2024-03-02T09:46:24;98316.91;;;13.97;100.00
13800;BME280;6971;50.028;9.258;2024-03-02T09:51:25;98310.91;;;13.74;99.32
13800;BME280;6971;50.028;9.258;2024-03-02T09:56:26;98315.97;;;14.08;96.28
13800;BME280;6971;50.028;9.258;2024-03-02T10:01:26;98307.00;;;15.11;93.81
13800;BME280;6971;50.028;9.258;2024-03-02T10:06:27;98307.13;;;14.80;91.00
13800;BME280;6971;50.028;9.258;2024-03-02T10:11:32;98306.56;;;14.86;86.65
13800;BME280;6971;50.028;9.258;2024-03-02T10:16:41;98296.91;;;14.65;86.77
13800;BME280;6971;50.028;9.258;2024-03-02T10:21:42;98298.16;;;14.20;88.04
13800;BME280;6971;50.028;9.258;2024-03-02T10:26:42;98285.22;;;14.78;83.65
13800;BME280;6971;50.028;9.258;2024-03-02T10:31:44;98287.66;;;14.49;84.59
13800;BME280;6971;50.028;9.258;2024-03-02T10:36:45;98293.31;;;14.86;80.44
13800;BME280;6971;50.028;9.258;2024-03-02T10:41:48;98301.41;;;15.34;73.17
13800;BME280;6971;50.028;9.258;2024-03-02T10:46:49;98284.28;;;15.76;71.89
13800;BME280;6971;50.028;9.258;2024-03-02T10:51:53;98285.88;;;14.60;70.31
13800;BME280;6971;50.028;9.258;2024-03-02T10:56:55;98281.47;;;15.87;67.65
13800;BME280;6971;50.028;9.258;2024-03-02T11:02:00;98274.13;;;15.51;67.79
13800;BME280;6971;50.028;9.258;2024-03-02T11:07:04;98275.06;;;15.70;65.79
13800;BME280;6971;50.028;9.258;2024-03-02T11:12:27;98268.63;;;16.49;63.01
13800;BME280;6971;50.028;9.258;2024-03-02T11:17:29;98261.72;;;16.74;60.76
13800;BME280;6971;50.028;9.258;2024-03-02T11:22:29;98255.75;;;17.53;59.16
13800;BME280;6971;50.028;9.258;2024-03-02T11:32:55;98234.69;;;16.33;61.89
13800;BME280;6971;50.028;9.258;2024-03-02T11:37:55;98240.22;;;16.67;59.69
13800;BME280;6971;50.028;9.258;2024-03-02T11:43:02;98234.78;;;16.41;58.87
13800;BME280;6971;50.028;9.258;2024-03-02T11:48:05;98232.78;;;17.60;57.57
13800;BME280;6971;50.028;9.258;2024-03-02T11:53:07;98225.06;;;16.68;59.73
13800;BME280;6971;50.028;9.258;2024-03-02T11:58:08;98214.06;;;16.63;62.46
13800;BME280;6971;50.028;9.258;2024-03-02T12:03:13;98206.53;;;16.76;63.10
13800;BME280;6971;50.028;9.258;2024-03-02T12:08:13;98197.81;;;16.66;61.66
13800;BME280;6971;50.028;9.258;2024-03-02T12:13:13;98191.19;;;16.34;61.03
13800;BME280;6971;50.028;9.258;2024-03-02T12:18:14;98189.78;;;17.02;60.91
13800;BME280;6971;50.028;9.258;2024-03-02T12:23:14;98189.00;;;17.28;59.01
13800;BME280;6971;50.028;9.258;2024-03-02T12:28:15;98178.75;;;17.42;58.77
13800;BME280;6971;50.028;9.258;2024-03-02T12:33:16;98175.78;;;16.55;58.24
13800;BME280;6971;50.028;9.258;2024-03-02T12:38:16;98165.84;;;16.11;60.04
13800;BME280;6971;50.028;9.258;2024-03-02T12:43:17;98154.81;;;14.72;57.99
13800;BME280;6971;50.028;9.258;2024-03-02T12:48:17;98150.25;;;15.70;57.67
13800;BME280;6971;50.028;9.258;2024-03-02T12:53:18;98156.72;;;17.05;55.45
13800;BME280;6971;50.028;9.258;2024-03-02T12:58:19;98139.38;;;15.91;57.70
13800;BME280;6971;50.028;9.258;2024-03-02T13:03:21;98142.81;;;16.93;54.95
13800;BME280;6971;50.028;9.258;2024-03-02T13:08:22;98140.13;;;16.48;54.52
13800;BME280;6971;50.028;9.258;2024-03-02T13:13:23;98136.28;;;16.87;52.18
13800;BME280;6971;50.028;9.258;2024-03-02T13:18:23;98140.13;;;16.66;53.37
13800;BME280;6971;50.028;9.258;2024-03-02T13:23:24;98132.16;;;15.56;54.20
13800;BME280;6971;50.028;9.258;2024-03-02T13:28:25;98127.44;;;15.77;53.85
13800;BME280;6971;50.028;9.258;2024-03-02T13:33:25;98121.16;;;15.12;55.94
13800;BME280;6971;50.028;9.258;2024-03-02T13:38:25;98117.59;;;15.32;56.43
13800;BME280;6971;50.028;9.258;2024-03-02T13:43:26;98122.63;;;14.38;54.81
13800;BME280;6971;50.028;9.258;2024-03-02T13:48:27;98113.41;;;14.52;54.65
13800;BME280;6971;50.028;9.258;2024-03-02T13:53:27;98122.44;;;14.98;54.79
13800;BME280;6971;50.028;9.258;2024-03-02T13:58:28;98115.34;;;14.69;54.94
13800;BME280;6971;50.028;9.258;2024-03-02T14:03:28;98112.16;;;15.33;55.21
13800;BME280;6971;50.028;9.258;2024-03-02T14:08:30;98112.69;;;14.69;56.70
13800;BME280;6971;50.028;9.258;2024-03-02T14:13:34;98108.78;;;14.64;59.68
13800;BME280;6971;50.028;9.258;2024-03-02T14:18:34;98106.91;;;15.42;58.61
13800;BME280;6971;50.028;9.258;2024-03-02T14:23:34;98102.94;;;14.40;62.12
13800;BME280;6971;50.028;9.258;2024-03-02T14:28:35;98097.03;;;14.86;63.13
13800;BME280;6971;50.028;9.258;2024-03-02T14:33:35;98100.84;;;14.54;64.59
13800;BME280;6971;50.028;9.258;2024-03-02T14:38:36;98101.13;;;14.80;64.86
13800;BME280;6971;50.028;9.258;2024-03-02T14:43:36;98096.06;;;14.67;65.69
13800;BME280;6971;50.028;9.258;2024-03-02T14:48:37;98091.91;;;14.55;66.44
13800;BME280;6971;50.028;9.258;2024-03-02T14:53:38;98088.16;;;14.28;67.98
13800;BME280;6971;50.028;9.258;2024-03-02T14:58:38;98083.97;;;14.15;68.32
13800;BME280;6971;50.028;9.258;2024-03-02T15:03:40;98076.59;;;14.09;68.38
13800;BME280;6971;50.028;9.258;2024-03-02T15:08:41;98064.44;;;13.96;67.81
13800;BME280;6971;50.028;9.258;2024-03-02T15:13:42;98062.78;;;13.95;69.00
13800;BME280;6971;50.028;9.258;2024-03-02T15:18:45;98048.81;;;13.74;68.52
13800;BME280;6971;50.028;9.258;2024-03-02T15:23:46;98055.78;;;13.84;68.88
13800;BME280;6971;50.028;9.258;2024-03-02T15:28:46;98046.81;;;13.56;68.59
13800;BME280;6971;50.028;9.258;2024-03-02T15:33:47;98035.13;;;13.58;69.02
13800;BME280;6971;50.028;9.258;2024-03-02T15:38:47;98025.59;;;13.36;69.65
13800;BME280;6971;50.028;9.258;2024-03-02T15:43:48;98024.72;;;13.26;70.85
13800;BME280;6971;50.028;9.258;2024-03-02T15:48:48;98029.13;;;13.15;73.17
13800;BME280;6971;50.028;9.258;2024-03-02T15:53:49;98026.44;;;12.96;74.94
13800;BME280;6971;50.028;9.258;2024-03-02T15:58:49;98012.72;;;12.81;76.01
13800;BME280;6971;50.028;9.258;2024-03-02T16:03:50;98024.78;;;12.73;76.95
13800;BME280;6971;50.028;9.258;2024-03-02T16:08:50;98029.38;;;12.71;78.04
13800;BME280;6971;50.028;9.258;2024-03-02T16:13:51;98022.06;;;12.63;79.77
13800;BME280;6971;50.028;9.258;2024-03-02T16:18:52;98011.78;;;12.60;80.00
13800;BME280;6971;50.028;9.258;2024-03-02T16:23:52;98013.19;;;12.43;81.59
13800;BME280;6971;50.028;9.258;2024-03-02T16:28:53;98017.03;;;12.29;83.66
13800;BME280;6971;50.028;9.258;2024-03-02T16:33:54;98002.66;;;12.22;84.34
13800;BME280;6971;50.028;9.258;2024-03-02T16:38:55;98013.75;;;12.04;86.18
13800;BME280;6971;50.028;9.258;2024-03-02T16:43:55;98011.88;;;11.95;88.43
13800;BME280;6971;50.028;9.258;2024-03-02T16:48:56;98014.53;;;11.83;90.47
13800;BME280;6971;50.028;9.258;2024-03-02T16:53:56;98019.88;;;11.72;92.89
13800;BME280;6971;50.028;9.258;2024-03-02T16:58:57;98019.31;;;11.57;95.42
13800;BME280;6971;50.028;9.258;2024-03-02T17:03:57;98021.97;;;11.45;97.35
13800;BME280;6971;50.028;9.258;2024-03-02T17:08:57;98031.94;;;11.30;100.00
13800;BME280;6971;50.028;9.258;2024-03-02T17:13:58;98032.81;;;11.08;100.00
13800;BME280;6971;50.028;9.258;2024-03-02T17:18:59;98033.16;;;10.80;100.00
13800;BME280;6971;50.028;9.258;2024-03-02T17:23:59;98032.78;;;10.62;100.00
13800;BME280;6971;50.028;9.258;2024-03-02T17:29:00;98031.09;;;10.61;100.00
13800;BME280;6971;50.028;9.258;2024-03-02T17:34:00;98034.31;;;10.53;100.00
13800;BME280;6971;50.028;9.258;2024-03-02T17:39:01;98035.53;;;10.61;100.00
13800;BME280;6971;50.028;9.258;2024-03-02T17:44:03;98033.56;;;10.40;100.00
13800;BME280;6971;50.028;9.258;2024-03-02T17:49:03;98037.94;;;10.52;100.00
13800;BME280;6971;50.028;9.258;2024-03-02T17:54:04;98038.38;;;10.46;100.00
13800;BME280;6971;50.028;9.258;2024-03-02T17:59:04;98043.88;;;10.43;100.00
13800;BME280;6971;50.028;9.258;2024-03-02T18:04:05;98050.16;;;10.40;100.00
13800;BME280;6971;50.028;9.258;2024-03-02T18:09:05;98055.31;;;10.30;100.00
13800;BME280;6971;50.028;9.258;2024-03-02T18:14:07;98045.00;;;10.27;100.00
13800;BME280;6971;50.028;9.258;2024-03-02T18:19:07;98036.88;;;10.30;100.00
13800;BME280;6971;50.028;9.258;2024-03-02T18:24:07;98043.81;;;10.31;100.00
13800;BME280;6971;50.028;9.258;2024-03-02T18:29:08;98047.75;;;10.26;100.00
13800;BME280;6971;50.028;9.258;2024-03-02T18:34:09;98047.75;;;10.26;100.00
13800;BME280;6971;50.028;9.258;2024-03-02T18:39:09;98041.03;;;10.22;100.00
13800;BME280;6971;50.028;9.258;2024-03-02T18:44:10;98053.59;;;10.18;100.00
13800;BME280;6971;50.028;9.258;2024-03-02T18:49:10;98047.38;;;10.19;100.00
13800;BME280;6971;50.028;9.258;2024-03-02T18:54:11;98037.06;;;10.16;100.00
13800;BME280;6971;50.028;9.258;2024-03-02T18:59:11;98043.56;;;10.23;100.00
13800;BME280;6971;50.028;9.258;2024-03-02T19:04:12;98048.00;;;10.23;100.00
13800;BME280;6971;50.028;9.258;2024-03-02T19:09:12;98045.59;;;10.19;100.00
13800;BME280;6971;50.028;9.258;2024-03-02T19:14:13;98047.25;;;10.21;100.00
13800;BME280;6971;50.028;9.258;2024-03-02T19:19:13;98041.72;;;10.12;100.00
13800;BME280;6971;50.028;9.258;2024-03-02T19:24:15;98048.78;;;10.12;100.00
13800;BME280;6971;50.028;9.258;2024-03-02T19:29:15;98058.81;;;10.06;100.00
13800;BME280;6971;50.028;9.258;2024-03-02T19:34:15;98053.16;;;10.00;100.00
13800;BME280;6971;50.028;9.258;2024-03-02T19:39:17;98042.97;;;9.95;100.00
13800;BME280;6971;50.028;9.258;2024-03-02T19:44:24;98036.19;;;9.79;100.00
13800;BME280;6971;50.028;9.258;2024-03-02T19:49:26;98033.66;;;9.78;100.00
13800;BME280;6971;50.028;9.258;2024-03-02T19:54:26;98019.41;;;9.69;100.00
13800;BME280;6971;50.028;9.258;2024-03-02T19:59:27;98007.75;;;9.60;100.00
13800;BME280;6971;50.028;9.258;2024-03-02T20:04:27;97999.72;;;9.50;100.00
13800;BME280;6971;50.028;9.258;2024-03-02T20:09:27;97993.22;;;9.43;100.00
13800;BME280;6971;50.028;9.258;2024-03-02T20:14:28;97975.47;;;9.34;100.00
13800;BME280;6971;50.028;9.258;2024-03-02T20:19:28;97965.91;;;9.33;100.00
13800;BME280;6971;50.028;9.258;2024-03-02T20:24:28;97961.94;;;9.27;100.00
13800;BME280;6971;50.028;9.258;2024-03-02T20:29:29;97948.34;;;9.33;100.00
13800;BME280;6971;50.028;9.258;2024-03-02T20:34:29;97954.38;;;9.22;100.00
13800;BME280;6971;50.028;9.258;2024-03-02T20:39:30;97949.28;;;9.08;100.00
13800;BME280;6971;50.028;9.258;2024-03-02T20:44:30;97942.34;;;9.07;100.00
13800;BME280;6971;50.028;9.258;2024-03-02T20:49:31;97945.22;;;8.91;100.00
13800;BME280;6971;50.028;9.258;2024-03-02T20:54:31;97938.41;;;8.88;100.00
13800;BME280;6971;50.028;9.258;2024-03-02T20:59:35;97938.31;;;8.77;100.00
13800;BME280;6971;50.028;9.258;2024-03-02T21:04:35;97944.00;;;8.70;100.00
13800;BME280;6971;50.028;9.258;2024-03-02T21:09:36;97963.97;;;8.60;100.00
13800;BME280;6971;50.028;9.258;2024-03-02T21:14:36;97973.94;;;8.55;100.00
13800;BME280;6971;50.028;9.258;2024-03-02T21:19:39;97975.59;;;8.43;100.00
13800;BME280;6971;50.028;9.258;2024-03-02T21:24:40;97983.16;;;8.21;100.00
13800;BME280;6971;50.028;9.258;2024-03-02T21:29:45;97998.56;;;8.13;100.00
13800;BME280;6971;50.028;9.258;2024-03-02T21:34:45;97992.69;;;8.09;100.00
13800;BME280;6971;50.028;9.258;2024-03-02T21:39:46;97981.50;;;7.80;100.00
13800;BME280;6971;50.028;9.258;2024-03-02T21:44:46;97987.19;;;7.87;100.00
13800;BME280;6971;50.028;9.258;2024-03-02T21:49:46;97988.53;;;7.79;100.00
13800;BME280;6971;50.028;9.258;2024-03-02T21:54:47;97980.00;;;7.76;100.00
13800;BME280;6971;50.028;9.258;2024-03-02T21:59:47;97956.50;;;7.74;100.00
13800;BME280;6971;50.028;9.258;2024-03-02T22:04:47;97943.91;;;7.66;100.00
13800;BME280;6971;50.028;9.258;2024-03-02T22:09:48;97936.13;;;7.52;100.00
13800;BME280;6971;50.028;9.258;2024-03-02T22:14:48;97934.13;;;7.55;100.00
13800;BME280;6971;50.028;9.258;2024-03-02T22:19:48;97934.78;;;7.59;100.00
13800;BME280;6971;50.028;9.258;2024-03-02T22:24:49;97924.50;;;7.56;100.00
13800;BME280;6971;50.028;9.258;2024-03-02T22:29:49;97920.13;;;7.42;100.00
13800;BME280;6971;50.028;9.258;2024-03-02T22:34:49;97925.38;;;7.42;100.00
13800;BME280;6971;50.028;9.258;2024-03-02T22:39:50;97920.50;;;7.23;100.00
13800;BME280;6971;50.028;9.258;2024-03-02T22:44:50;97912.63;;;7.23;100.00
13800;BME280;6971;50.028;9.258;2024-03-02T22:49:51;97916.78;;;7.12;100.00
13800;BME280;6971;50.028;9.258;2024-03-02T22:54:54;97915.47;;;7.20;100.00
13800;BME280;6971;50.028;9.258;2024-03-02T22:59:54;97917.53;;;7.14;100.00
13800;BME280;6971;50.028;9.258;2024-03-02T23:04:55;97907.81;;;7.29;100.00
13800;BME280;6971;50.028;9.258;2024-03-02T23:09:55;97914.06;;;7.41;100.00
13800;BME280;6971;50.028;9.258;2024-03-02T23:14:55;97913.41;;;7.38;100.00
13800;BME280;6971;50.028;9.258;2024-03-02T23:19:56;97912.97;;;7.31;100.00
13800;BME280;6971;50.028;9.258;2024-03-02T23:24:56;97912.78;;;7.34;100.00
13800;BME280;6971;50.028;9.258;2024-03-02T23:29:56;97915.31;;;7.36;100.00
13800;BME280;6971;50.028;9.258;2024-03-02T23:34:57;97914.00;;;7.28;100.00
13800;BME280;6971;50.028;9.258;2024-03-02T23:39:57;97914.97;;;7.27;100.00
13800;BME280;6971;50.028;9.258;2024-03-02T23:45:00;97913.56;;;7.22;100.00
13800;BME280;6971;50.028;9.258;2024-03-02T23:50:02;97910.22;;;7.20;100.00
13800;BME280;6971;50.028;9.258;2024-03-02T23:55:06;97911.38;;;7.15;100.00
